createdAt,value
2022-12-25T00:02:08.881Z,6.50
2022-12-25T00:04:42.468Z,6.43
2022-12-25T00:07:17.537Z,6.32
2022-12-25T00:09:51.260Z,6.24
2022-12-25T00:12:24.801Z,6.33
2022-12-25T00:14:58.377Z,6.25
2022-12-25T00:17:31.723Z,6.25
2022-12-25T00:20:05.727Z,6.22
2022-12-25T00:22:40.487Z,6.12
2022-12-25T00:25:14.056Z,6.20
2022-12-25T00:27:47.638Z,6.18
2022-12-25T00:30:21.181Z,6.15
2022-12-25T00:32:54.453Z,6.06
2022-12-25T00:35:28.042Z,6.01
2022-12-25T00:38:02.685Z,5.95
2022-12-25T00:40:42.094Z,5.86
2022-12-25T00:43:15.622Z,5.82
2022-12-25T00:45:56.060Z,5.66
2022-12-25T00:48:30.509Z,5.71
2022-12-25T00:51:05.844Z,5.58
2022-12-25T00:53:40.654Z,5.49
2022-12-25T00:56:14.189Z,5.47
2022-12-25T00:58:47.758Z,5.52
2022-12-25T01:01:21.363Z,5.51
2022-12-25T01:03:54.768Z,5.45
2022-12-25T01:06:28.393Z,5.42
2022-12-25T01:09:20.326Z,5.40
2022-12-25T01:11:54.091Z,5.34
2022-12-25T01:14:27.414Z,5.30
2022-12-25T01:17:01.007Z,5.27
2022-12-25T01:19:34.381Z,5.22
2022-12-25T01:22:07.959Z,5.20
2022-12-25T01:24:42.639Z,5.21
2022-12-25T01:27:16.466Z,5.17
2022-12-25T01:29:49.935Z,5.12
2022-12-25T01:32:23.480Z,5.09
2022-12-25T01:34:56.796Z,5.06
2022-12-25T01:37:30.368Z,5.06
2022-12-25T01:40:05.616Z,5.02
2022-12-25T01:42:39.365Z,5.01
2022-12-25T01:45:27.584Z,5.01
2022-12-25T01:48:03.200Z,5.03
2022-12-25T01:50:37.127Z,5.10
2022-12-25T01:53:10.825Z,5.08
2022-12-25T01:55:47.258Z,5.09
2022-12-25T01:58:21.014Z,5.04
2022-12-25T02:00:54.585Z,5.02
2022-12-25T02:03:28.389Z,5.01
2022-12-25T02:06:02.268Z,4.97
2022-12-25T02:08:35.776Z,5.02
2022-12-25T02:11:31.837Z,-144.80
2022-12-25T02:14:05.529Z,-144.80
2022-12-25T02:16:58.074Z,-144.80
2022-12-25T02:19:41.041Z,-144.80
2022-12-25T02:22:22.367Z,-144.80
2022-12-25T02:25:04.999Z,4.91
2022-12-25T02:27:54.438Z,4.80
2022-12-25T02:30:30.844Z,4.77
2022-12-25T02:33:21.552Z,4.90
2022-12-25T02:35:56.587Z,4.82
2022-12-25T02:38:32.886Z,4.77
2022-12-25T02:41:08.275Z,4.76
2022-12-25T02:44:02.151Z,4.75
2022-12-25T02:46:49.604Z,4.74
2022-12-25T02:49:42.350Z,4.74
2022-12-25T02:52:36.172Z,4.71
2022-12-25T02:55:29.520Z,4.72
2022-12-25T02:58:22.853Z,4.64
2022-12-25T03:01:17.793Z,4.58
2022-12-25T03:04:10.035Z,4.59
2022-12-25T03:06:51.879Z,4.70
2022-12-25T03:09:44.952Z,4.62
2022-12-25T03:12:21.821Z,4.61
2022-12-25T03:15:12.749Z,4.56
2022-12-25T03:17:47.629Z,4.54
2022-12-25T03:20:38.965Z,4.53
2022-12-25T03:23:30.752Z,4.51
2022-12-25T03:26:22.132Z,4.47
2022-12-25T03:28:55.546Z,4.45
2022-12-25T03:31:36.477Z,4.42
2022-12-25T03:34:36.777Z,4.39
2022-12-25T03:37:24.425Z,4.41
2022-12-25T03:40:21.844Z,4.41
2022-12-25T03:43:16.837Z,4.36
2022-12-25T03:46:21.181Z,4.42
2022-12-25T03:49:18.108Z,4.32
2022-12-25T03:52:12.692Z,4.38
2022-12-25T03:55:04.465Z,4.37
2022-12-25T03:57:55.822Z,4.39
2022-12-25T04:00:46.717Z,4.36
2022-12-25T04:03:37.635Z,4.39
2022-12-25T04:06:28.971Z,-144.80
2022-12-25T04:09:20.909Z,4.36
2022-12-25T04:12:12.036Z,4.30
2022-12-25T04:15:02.866Z,4.37
2022-12-25T04:17:54.206Z,4.44
2022-12-25T04:20:44.940Z,4.44
2022-12-25T04:23:35.872Z,4.51
2022-12-25T04:26:28.313Z,4.27
2022-12-25T04:29:30.646Z,4.21
2022-12-25T04:32:23.917Z,4.22
2022-12-25T04:35:14.700Z,4.22
2022-12-25T04:37:48.524Z,4.22
2022-12-25T04:40:22.062Z,4.21
2022-12-25T04:42:56.763Z,4.20
2022-12-25T04:45:30.581Z,4.24
2022-12-25T04:48:04.011Z,4.25
2022-12-25T04:50:37.559Z,4.25
2022-12-25T04:53:10.928Z,4.30
2022-12-25T04:55:44.776Z,4.23
2022-12-25T04:58:19.553Z,4.21
2022-12-25T05:00:53.249Z,4.17
2022-12-25T05:03:26.691Z,4.09
2022-12-25T05:06:00.618Z,4.09
2022-12-25T05:08:35.213Z,4.06
2022-12-25T05:11:09.496Z,4.12
2022-12-25T05:13:44.391Z,4.10
2022-12-25T05:16:19.315Z,4.07
2022-12-25T05:18:53.300Z,4.05
2022-12-25T05:21:26.903Z,4.06
2022-12-25T05:24:00.201Z,4.10
2022-12-25T05:26:33.710Z,4.13
2022-12-25T05:29:08.488Z,4.17
2022-12-25T05:31:42.106Z,4.25
2022-12-25T05:34:15.531Z,4.23
2022-12-25T05:36:49.007Z,4.23
2022-12-25T05:39:22.271Z,4.25
2022-12-25T05:41:55.846Z,4.30
2022-12-25T05:44:30.559Z,4.37
2022-12-25T05:47:04.190Z,4.41
2022-12-25T05:49:37.592Z,4.46
2022-12-25T05:52:11.157Z,4.51
2022-12-25T05:54:44.516Z,4.51
2022-12-25T05:57:18.092Z,4.53
2022-12-25T05:59:52.749Z,4.55
2022-12-25T06:02:26.743Z,4.57
2022-12-25T06:05:00.260Z,4.58
2022-12-25T06:07:34.266Z,4.57
2022-12-25T06:10:08.334Z,4.70
2022-12-25T06:12:42.102Z,4.65
2022-12-25T06:15:16.852Z,4.74
2022-12-25T06:17:50.476Z,4.78
2022-12-25T06:20:23.805Z,4.79
2022-12-25T06:22:57.501Z,4.77
2022-12-25T06:25:31.160Z,4.82
2022-12-25T06:28:04.894Z,4.80
2022-12-25T06:30:39.563Z,4.71
2022-12-25T06:33:13.097Z,4.75
2022-12-25T06:35:46.429Z,4.70
2022-12-25T06:38:20.016Z,4.67
2022-12-25T06:40:53.394Z,4.76
2022-12-25T06:43:27.013Z,4.79
2022-12-25T06:46:04.885Z,4.80
2022-12-25T06:48:39.584Z,4.83
2022-12-25T06:51:13.601Z,4.82
2022-12-25T06:53:47.284Z,4.88
2022-12-25T06:56:21.554Z,4.93
2022-12-25T06:58:56.147Z,4.96
2022-12-25T07:01:31.926Z,4.98
2022-12-25T07:04:06.778Z,5.01
2022-12-25T07:06:40.183Z,4.95
2022-12-25T07:09:13.836Z,4.98
2022-12-25T07:11:47.175Z,4.96
2022-12-25T07:14:24.188Z,4.97
2022-12-25T07:16:59.311Z,4.95
2022-12-25T07:19:32.909Z,4.93
2022-12-25T07:22:06.203Z,4.93
2022-12-25T07:24:39.817Z,4.97
2022-12-25T07:27:13.350Z,4.93
2022-12-25T07:29:46.998Z,5.00
2022-12-25T07:32:21.756Z,4.98
2022-12-25T07:34:55.338Z,5.01
2022-12-25T07:37:28.679Z,5.04
2022-12-25T07:40:02.213Z,5.11
2022-12-25T07:42:36.340Z,5.14
2022-12-25T07:45:10.329Z,5.13
2022-12-25T07:47:45.695Z,5.18
2022-12-25T07:50:19.384Z,5.25
2022-12-25T07:52:52.733Z,5.30
2022-12-25T07:55:26.383Z,5.32
2022-12-25T07:57:59.779Z,5.35
2022-12-25T08:00:33.436Z,5.43
2022-12-25T08:03:08.516Z,5.38
2022-12-25T08:05:42.231Z,5.40
2022-12-25T08:08:15.625Z,5.43
2022-12-25T08:10:49.284Z,5.41
2022-12-25T08:13:22.740Z,5.53
2022-12-25T08:15:57.870Z,5.59
2022-12-25T08:18:33.099Z,5.62
2022-12-25T08:21:07.861Z,5.58
2022-12-25T08:23:42.257Z,5.60
2022-12-25T08:26:17.422Z,5.62
2022-12-25T08:28:51.311Z,5.65
2022-12-25T08:31:26.245Z,-144.80
2022-12-25T08:34:02.598Z,-144.80
2022-12-25T08:36:36.209Z,5.77
2022-12-25T08:39:09.791Z,5.78
2022-12-25T08:41:43.512Z,5.87
2022-12-25T08:44:16.866Z,5.84
2022-12-25T08:46:50.409Z,5.86
2022-12-25T08:49:27.287Z,5.89
2022-12-25T08:52:02.043Z,5.90
2022-12-25T08:54:36.420Z,5.96
2022-12-25T08:57:10.146Z,5.96
2022-12-25T08:59:43.525Z,6.05
2022-12-25T09:02:17.848Z,6.04
2022-12-25T09:04:52.639Z,6.03
2022-12-25T09:07:26.284Z,6.02
2022-12-25T09:09:59.707Z,6.11
2022-12-25T09:12:33.377Z,6.11
2022-12-25T09:15:07.298Z,6.06
2022-12-25T09:17:41.316Z,6.04
2022-12-25T09:20:16.100Z,6.10
2022-12-25T09:22:50.477Z,6.03
2022-12-25T09:25:23.813Z,6.06
2022-12-25T09:27:57.750Z,6.03
2022-12-25T09:30:31.189Z,6.09
2022-12-25T09:33:04.749Z,6.08
2022-12-25T09:35:39.457Z,6.11
2022-12-25T09:38:13.384Z,6.08
2022-12-25T09:40:46.757Z,6.10
2022-12-25T09:43:21.753Z,6.14
2022-12-25T09:45:55.358Z,6.16
2022-12-25T09:48:30.477Z,6.13
2022-12-25T09:51:08.725Z,6.15
2022-12-25T09:53:46.865Z,6.18
2022-12-25T09:56:25.470Z,6.21
2022-12-25T09:58:59.674Z,6.28
2022-12-25T10:01:36.213Z,6.33
2022-12-25T10:04:18.442Z,6.34
2022-12-25T10:07:01.101Z,6.33
2022-12-25T10:09:39.006Z,6.34
2022-12-25T10:12:18.727Z,6.33
2022-12-25T10:15:01.952Z,6.32
2022-12-25T10:17:42.122Z,6.38
2022-12-25T10:20:19.516Z,6.40
2022-12-25T10:22:58.291Z,6.47
2022-12-25T10:25:32.836Z,6.53
2022-12-25T10:28:12.400Z,6.57
2022-12-25T10:30:46.158Z,6.61
2022-12-25T10:33:21.254Z,6.63
2022-12-25T10:35:54.853Z,6.62
2022-12-25T10:38:29.461Z,6.67
2022-12-25T10:41:10.652Z,6.69
2022-12-25T10:43:46.324Z,6.68
2022-12-25T10:46:20.629Z,6.73
2022-12-25T10:48:55.473Z,6.80
2022-12-25T10:51:30.980Z,6.84
2022-12-25T10:54:19.379Z,6.85
2022-12-25T10:56:53.817Z,6.79
2022-12-25T10:59:28.042Z,6.82
2022-12-25T11:02:06.011Z,6.87
2022-12-25T11:04:39.535Z,6.89
2022-12-25T11:07:16.287Z,6.94
2022-12-25T11:09:53.385Z,6.93
2022-12-25T11:12:30.203Z,7.00
2022-12-25T11:15:05.546Z,7.03
2022-12-25T11:17:39.626Z,7.05
2022-12-25T11:20:16.957Z,7.02
2022-12-25T11:22:50.932Z,7.07
2022-12-25T11:25:27.047Z,7.08
2022-12-25T11:28:01.441Z,7.10
2022-12-25T11:30:35.773Z,7.15
2022-12-25T11:33:13.265Z,7.08
2022-12-25T11:35:48.876Z,7.08
2022-12-25T11:38:23.826Z,7.10
2022-12-25T11:41:00.424Z,7.12
2022-12-25T11:43:36.887Z,7.12
2022-12-25T11:46:14.330Z,7.15
2022-12-25T11:48:55.983Z,7.18
2022-12-25T11:51:31.655Z,7.17
2022-12-25T11:54:09.377Z,7.12
2022-12-25T11:56:44.427Z,7.16
2022-12-25T11:59:21.415Z,7.13
2022-12-25T12:01:57.421Z,7.13
2022-12-25T12:04:42.081Z,7.13
2022-12-25T12:07:20.044Z,7.11
2022-12-25T12:09:57.563Z,7.11
2022-12-25T12:12:39.709Z,7.11
2022-12-25T12:15:22.880Z,7.21
2022-12-25T12:17:56.450Z,7.21
2022-12-25T12:20:31.196Z,7.20
2022-12-25T12:23:06.037Z,7.20
2022-12-25T12:25:39.931Z,7.15
2022-12-25T12:28:21.136Z,7.20
2022-12-25T12:30:59.282Z,7.17
2022-12-25T12:33:35.649Z,7.14
2022-12-25T12:36:12.160Z,7.13
2022-12-25T12:38:46.029Z,7.16
2022-12-25T12:41:19.719Z,7.12
2022-12-25T12:43:57.779Z,7.12
2022-12-25T12:46:33.033Z,7.17
2022-12-25T12:49:10.135Z,7.21
2022-12-25T12:51:43.704Z,7.31
2022-12-25T12:54:20.487Z,7.31
2022-12-25T12:56:58.242Z,7.30
2022-12-25T12:59:38.888Z,7.32
2022-12-25T13:02:31.342Z,7.41
2022-12-25T13:05:06.074Z,7.35
2022-12-25T13:07:46.327Z,7.39
2022-12-25T13:10:24.908Z,7.40
2022-12-25T13:13:00.497Z,7.44
2022-12-25T13:15:35.956Z,7.45
2022-12-25T13:18:13.616Z,7.45
2022-12-25T13:20:49.538Z,7.45
2022-12-25T13:23:25.674Z,7.50
2022-12-25T13:26:01.531Z,7.50
2022-12-25T13:28:36.218Z,7.54
2022-12-25T13:31:14.989Z,7.52
2022-12-25T13:33:51.516Z,7.54
2022-12-25T13:36:25.117Z,7.55
2022-12-25T13:39:00.180Z,7.60
2022-12-25T13:41:55.459Z,7.58
2022-12-25T13:44:30.517Z,7.62
2022-12-25T13:47:16.515Z,7.61
2022-12-25T13:49:50.638Z,7.64
2022-12-25T13:52:28.032Z,7.65
2022-12-25T13:55:02.159Z,7.72
2022-12-25T13:57:37.973Z,7.69
2022-12-25T14:00:19.361Z,7.70
2022-12-25T14:02:54.433Z,7.69
2022-12-25T14:05:31.323Z,7.73
2022-12-25T14:08:14.078Z,7.70
2022-12-25T14:10:50.264Z,7.66
2022-12-25T14:13:24.664Z,7.62
2022-12-25T14:15:58.928Z,7.62
2022-12-25T14:18:33.763Z,7.61
2022-12-25T14:21:08.354Z,7.58
2022-12-25T14:23:42.701Z,7.57
2022-12-25T14:26:17.062Z,7.56
2022-12-25T14:28:51.527Z,7.62
2022-12-25T14:31:25.843Z,7.61
2022-12-25T14:34:02.076Z,7.59
2022-12-25T14:36:35.659Z,7.62
2022-12-25T14:39:23.593Z,7.66
2022-12-25T14:41:57.519Z,7.63
2022-12-25T14:44:32.548Z,7.64
2022-12-25T14:47:14.004Z,7.61
2022-12-25T14:49:48.860Z,7.59
2022-12-25T14:52:23.751Z,7.56
2022-12-25T14:54:59.330Z,7.53
2022-12-25T14:57:34.686Z,7.50
2022-12-25T15:00:21.434Z,7.51
2022-12-25T15:02:56.855Z,7.48
2022-12-25T15:05:33.414Z,7.49
2022-12-25T15:08:19.561Z,7.59
2022-12-25T15:11:02.194Z,7.60
2022-12-25T15:13:36.420Z,7.54
2022-12-25T15:16:13.603Z,7.61
2022-12-25T15:18:47.772Z,7.58
2022-12-25T15:21:26.212Z,7.56
2022-12-25T15:24:00.756Z,7.59
2022-12-25T15:26:34.140Z,7.56
2022-12-25T15:29:07.739Z,7.56
2022-12-25T15:31:42.062Z,7.57
2022-12-25T15:34:17.005Z,7.58
2022-12-25T15:36:52.455Z,7.54
2022-12-25T15:39:26.090Z,7.55
2022-12-25T15:42:12.783Z,7.55
2022-12-25T15:44:46.659Z,7.58
2022-12-25T15:47:20.591Z,7.54
2022-12-25T15:49:54.179Z,7.52
2022-12-25T15:52:28.997Z,7.57
2022-12-25T15:55:02.757Z,7.56
2022-12-25T15:57:36.381Z,7.50
2022-12-25T16:00:15.536Z,7.48
2022-12-25T16:02:49.188Z,7.43
2022-12-25T16:05:22.999Z,7.42
2022-12-25T16:07:57.673Z,7.39
2022-12-25T16:10:38.224Z,7.36
2022-12-25T16:13:12.190Z,7.33
2022-12-25T16:15:46.002Z,7.38
2022-12-25T16:18:19.424Z,7.35
2022-12-25T16:20:53.144Z,7.31
2022-12-25T16:23:27.892Z,7.30
2022-12-25T16:26:01.484Z,7.29
2022-12-25T16:28:34.868Z,7.31
2022-12-25T16:31:08.436Z,7.33
2022-12-25T16:33:41.981Z,7.31
2022-12-25T16:36:15.525Z,7.33
2022-12-25T16:38:50.252Z,7.33
2022-12-25T16:41:23.878Z,7.32
2022-12-25T16:43:57.187Z,7.34
2022-12-25T16:46:30.867Z,7.31
2022-12-25T16:49:04.593Z,7.25
2022-12-25T16:51:38.259Z,7.26
2022-12-25T16:54:12.902Z,7.28
2022-12-25T16:56:46.557Z,7.29
2022-12-25T16:59:20.029Z,7.29
2022-12-25T17:01:53.684Z,7.31
2022-12-25T17:04:28.267Z,7.30
2022-12-25T17:07:01.805Z,7.26
2022-12-25T17:09:43.700Z,7.22
2022-12-25T17:12:17.829Z,7.23
2022-12-25T17:14:51.241Z,7.21
2022-12-25T17:17:24.759Z,7.17
2022-12-25T17:19:58.078Z,7.16
2022-12-25T17:22:31.800Z,7.14
2022-12-25T17:25:06.795Z,7.15
2022-12-25T17:27:40.405Z,7.12
2022-12-25T17:30:13.860Z,7.12
2022-12-25T17:32:47.422Z,7.12
2022-12-25T17:35:21.294Z,7.09
2022-12-25T17:37:55.092Z,7.07
2022-12-25T17:40:29.790Z,7.05
2022-12-25T17:43:03.544Z,7.08
2022-12-25T17:45:37.215Z,7.09
2022-12-25T17:48:10.857Z,7.07
2022-12-25T17:50:44.300Z,7.03
2022-12-25T17:53:18.049Z,7.00
2022-12-25T17:55:56.751Z,7.01
2022-12-25T17:58:30.383Z,7.03
2022-12-25T18:01:06.289Z,6.98
2022-12-25T18:03:40.305Z,6.96
2022-12-25T18:06:15.223Z,7.03
2022-12-25T18:08:49.177Z,6.97
2022-12-25T18:11:24.822Z,6.93
2022-12-25T18:14:01.381Z,6.91
2022-12-25T18:16:36.048Z,6.96
2022-12-25T18:19:09.938Z,6.95
2022-12-25T18:21:43.199Z,6.90
2022-12-25T18:24:16.690Z,6.89
2022-12-25T18:26:51.375Z,6.90
2022-12-25T18:29:24.836Z,6.90
2022-12-25T18:31:58.235Z,6.93
2022-12-25T18:34:31.990Z,6.88
2022-12-25T18:37:05.334Z,6.88
2022-12-25T18:39:39.028Z,6.84
2022-12-25T18:42:30.867Z,6.85
2022-12-25T18:45:04.593Z,6.85
2022-12-25T18:47:38.593Z,6.86
2022-12-25T18:50:13.723Z,6.90
2022-12-25T18:52:51.571Z,6.89
2022-12-25T18:55:26.856Z,6.89
2022-12-25T18:58:02.368Z,6.88
2022-12-25T19:00:35.924Z,6.94
2022-12-25T19:03:09.377Z,6.92
2022-12-25T19:05:44.260Z,6.94
2022-12-25T19:08:17.602Z,6.92
2022-12-25T19:10:51.208Z,6.90
2022-12-25T19:13:25.963Z,6.92
2022-12-25T19:16:00.242Z,6.92
2022-12-25T19:18:33.620Z,6.95
2022-12-25T19:21:08.217Z,6.96
2022-12-25T19:23:41.520Z,6.94
2022-12-25T19:26:15.151Z,6.95
2022-12-25T19:28:49.875Z,6.94
2022-12-25T19:31:23.525Z,6.98
2022-12-25T19:33:56.920Z,6.97
2022-12-25T19:36:31.139Z,6.96
2022-12-25T19:39:05.064Z,7.01
2022-12-25T19:41:38.641Z,7.01
2022-12-25T19:44:13.501Z,7.00
2022-12-25T19:46:47.294Z,6.98
2022-12-25T19:49:20.539Z,6.97
2022-12-25T19:51:54.058Z,6.96
2022-12-25T19:54:29.425Z,7.00
2022-12-25T19:57:02.913Z,7.01
2022-12-25T19:59:37.497Z,6.97
2022-12-25T20:02:11.182Z,6.98
2022-12-25T20:04:44.525Z,7.02
2022-12-25T20:07:18.079Z,7.01
2022-12-25T20:09:51.430Z,7.01
2022-12-25T20:12:24.994Z,6.98
2022-12-25T20:14:59.769Z,6.94
2022-12-25T20:17:33.349Z,6.90
2022-12-25T20:20:07.165Z,6.95
2022-12-25T20:22:40.788Z,6.92
2022-12-25T20:25:14.208Z,6.98
2022-12-25T20:27:48.336Z,6.98
2022-12-25T20:30:23.058Z,6.93
2022-12-25T20:32:57.827Z,6.93
2022-12-25T20:35:31.140Z,6.91
2022-12-25T20:38:04.722Z,6.89
2022-12-25T20:41:16.302Z,6.89
2022-12-25T20:43:31.837Z,6.92
2022-12-25T20:46:06.634Z,6.90
2022-12-25T20:48:40.368Z,6.90
2022-12-25T20:51:14.496Z,6.93
2022-12-25T20:53:47.963Z,6.92
2022-12-25T20:56:22.825Z,6.91
2022-12-25T20:58:57.012Z,6.94
2022-12-25T21:01:32.152Z,6.89
2022-12-25T21:04:05.976Z,6.88
2022-12-25T21:06:39.333Z,6.86
2022-12-25T21:09:12.813Z,6.87
2022-12-25T21:11:46.202Z,6.92
2022-12-25T21:14:19.830Z,6.98
2022-12-25T21:16:54.691Z,7.03
2022-12-25T21:19:28.243Z,7.02
2022-12-25T21:22:01.534Z,7.03
2022-12-25T21:24:35.145Z,7.01
2022-12-25T21:27:08.510Z,7.00
2022-12-25T21:29:42.079Z,7.04
2022-12-25T21:32:34.190Z,7.05
2022-12-25T21:35:08.061Z,7.06
2022-12-25T21:37:41.467Z,7.04
2022-12-25T21:40:16.620Z,7.02
2022-12-25T21:42:50.185Z,7.02
2022-12-25T21:45:23.811Z,7.03
2022-12-25T21:47:59.796Z,7.06
2022-12-25T21:50:51.567Z,7.06
2022-12-25T21:53:24.910Z,7.03
2022-12-25T21:56:00.519Z,6.94
2022-12-25T21:58:34.074Z,6.91
2022-12-25T22:01:07.708Z,6.87
2022-12-25T22:03:42.525Z,6.86
2022-12-25T22:06:33.446Z,6.86
2022-12-25T22:09:07.012Z,6.85
2022-12-25T22:11:58.325Z,6.84
2022-12-25T22:14:56.290Z,6.85
2022-12-25T22:17:49.401Z,6.83
2022-12-25T22:20:25.803Z,6.83
2022-12-25T22:22:59.416Z,6.85
2022-12-25T22:25:33.201Z,6.85
2022-12-25T22:28:08.502Z,6.87
2022-12-25T22:30:44.370Z,6.85
2022-12-25T22:33:20.329Z,6.86
2022-12-25T22:36:02.690Z,6.89
2022-12-25T22:38:36.371Z,6.91
2022-12-25T22:41:09.844Z,6.88
2022-12-25T22:44:15.771Z,6.86
2022-12-25T22:46:36.707Z,6.86
2022-12-25T22:49:10.272Z,6.87
2022-12-25T22:51:45.287Z,6.89
2022-12-25T22:54:19.881Z,6.86
2022-12-25T22:56:53.853Z,6.87
2022-12-25T22:59:27.316Z,6.89
2022-12-25T23:02:00.911Z,6.85
2022-12-25T23:04:34.733Z,6.86
2022-12-25T23:07:10.872Z,6.87
2022-12-25T23:09:45.095Z,6.91
2022-12-25T23:12:35.906Z,6.90
2022-12-25T23:15:09.885Z,6.87
2022-12-25T23:18:00.812Z,6.86
2022-12-25T23:20:51.703Z,6.84
2022-12-25T23:23:43.512Z,6.84
2022-12-25T23:26:17.881Z,6.84
2022-12-25T23:29:08.812Z,6.87
2022-12-25T23:31:42.836Z,6.89
2022-12-25T23:34:16.310Z,6.87
2022-12-25T23:36:50.215Z,6.91
2022-12-25T23:39:24.863Z,6.93
2022-12-25T23:41:58.782Z,6.95
2022-12-25T23:44:32.083Z,6.97
2022-12-25T23:47:05.631Z,6.98
2022-12-25T23:49:39.191Z,7.01
2022-12-25T23:52:13.853Z,7.04
2022-12-25T23:54:48.564Z,7.01
2022-12-25T23:57:22.106Z,7.01
2022-12-25T23:59:55.412Z,7.08
